sensor_id;sensor_type;location;lat;lon;timestamp;P1;durP1;ratioP1;P2;durP2;ratioP2
56343;SDS011;42245;42.058;24.700;2024-01-06T07:36:26;28.13;;;11.32;;
56343;SDS011;42245;42.058;24.700;2024-01-06T07:38:51;24.27;;;14.27;;
56343;SDS011;42245;42.058;24.700;2024-01-06T07:41:17;31.75;;;16.35;;
56343;SDS011;42245;42.058;24.700;2024-01-06T07:43:43;30.08;;;16.20;;
56343;SDS011;42245;42.058;24.700;2024-01-06T07:46:08;22.25;;;12.73;;
56343;SDS011;42245;42.058;24.700;2024-01-06T07:48:34;18.08;;;9.35;;
56343;SDS011;42245;42.058;24.700;2024-01-06T07:51:01;22.52;;;9.20;;
56343;SDS011;42245;42.058;24.700;2024-01-06T07:53:26;14.77;;;7.82;;
56343;SDS011;42245;42.058;24.700;2024-01-06T07:55:52;18.42;;;9.02;;
56343;SDS011;42245;42.058;24.700;2024-01-06T07:58:17;21.63;;;14.57;;
56343;SDS011;42245;42.058;24.700;2024-01-06T08:00:43;30.17;;;17.52;;
56343;SDS011;42245;42.058;24.700;2024-01-06T08:03:08;28.38;;;16.50;;
56343;SDS011;42245;42.058;24.700;2024-01-06T08:05:36;23.55;;;14.13;;
56343;SDS011;42245;42.058;24.700;2024-01-06T08:08:02;29.15;;;16.25;;
56343;SDS011;42245;42.058;24.700;2024-01-06T08:10:29;28.55;;;14.25;;
56343;SDS011;42245;42.058;24.700;2024-01-06T08:12:55;27.88;;;16.15;;
56343;SDS011;42245;42.058;24.700;2024-01-06T08:15:20;26.75;;;14.48;;
56343;SDS011;42245;42.058;24.700;2024-01-06T08:17:46;25.05;;;14.88;;
56343;SDS011;42245;42.058;24.700;2024-01-06T08:20:11;32.42;;;18.48;;
56343;SDS011;42245;42.058;24.700;2024-01-06T08:22:37;35.25;;;18.85;;
56343;SDS011;42245;42.058;24.700;2024-01-06T08:25:03;35.55;;;18.48;;
56343;SDS011;42245;42.058;24.700;2024-01-06T08:27:31;30.77;;;18.25;;
56343;SDS011;42245;42.058;24.700;2024-01-06T08:29:56;37.08;;;19.95;;
56343;SDS011;42245;42.058;24.700;2024-01-06T08:32:22;31.48;;;19.75;;
56343;SDS011;42245;42.058;24.700;2024-01-06T08:34:47;35.72;;;20.67;;
56343;SDS011;42245;42.058;24.700;2024-01-06T08:37:13;34.25;;;19.70;;
56343;SDS011;42245;42.058;24.700;2024-01-06T08:39:39;42.50;;;22.17;;
56343;SDS011;42245;42.058;24.700;2024-01-06T08:42:04;42.90;;;23.73;;
56343;SDS011;42245;42.058;24.700;2024-01-06T08:44:30;40.20;;;23.42;;
56343;SDS011;42245;42.058;24.700;2024-01-06T08:46:55;36.53;;;22.10;;
56343;SDS011;42245;42.058;24.700;2024-01-06T08:49:21;40.92;;;22.98;;
56343;SDS011;42245;42.058;24.700;2024-01-06T08:51:46;35.53;;;21.10;;
56343;SDS011;42245;42.058;24.700;2024-01-06T08:54:12;37.33;;;22.02;;
56343;SDS011;42245;42.058;24.700;2024-01-06T08:56:37;36.63;;;22.33;;
56343;SDS011;42245;42.058;24.700;2024-01-06T08:59:03;42.78;;;26.10;;
56343;SDS011;42245;42.058;24.700;2024-01-06T09:01:29;45.72;;;26.35;;
56343;SDS011;42245;42.058;24.700;2024-01-06T09:03:54;45.47;;;27.20;;
56343;SDS011;42245;42.058;24.700;2024-01-06T09:06:19;50.75;;;26.92;;
56343;SDS011;42245;42.058;24.700;2024-01-06T09:08:45;54.97;;;29.25;;
56343;SDS011;42245;42.058;24.700;2024-01-06T09:11:10;51.88;;;29.20;;
56343;SDS011;42245;42.058;24.700;2024-01-06T09:13:36;65.88;;;29.73;;
56343;SDS011;42245;42.058;24.700;2024-01-06T09:16:01;48.95;;;28.25;;
56343;SDS011;42245;42.058;24.700;2024-01-06T09:18:27;51.90;;;27.77;;
56343;SDS011;42245;42.058;24.700;2024-01-06T09:20:52;56.33;;;30.15;;
56343;SDS011;42245;42.058;24.700;2024-01-06T09:23:19;57.33;;;32.35;;
56343;SDS011;42245;42.058;24.700;2024-01-06T09:25:45;55.60;;;31.75;;
56343;SDS011;42245;42.058;24.700;2024-01-06T09:28:10;53.20;;;31.23;;
56343;SDS011;42245;42.058;24.700;2024-01-06T09:30:35;45.40;;;27.95;;
56343;SDS011;42245;42.058;24.700;2024-01-06T09:33:02;56.00;;;31.45;;
56343;SDS011;42245;42.058;24.700;2024-01-06T09:35:28;62.60;;;34.72;;
56343;SDS011;42245;42.058;24.700;2024-01-06T09:37:53;52.83;;;31.05;;
56343;SDS011;42245;42.058;24.700;2024-01-06T09:40:23;52.03;;;27.83;;
56343;SDS011;42245;42.058;24.700;2024-01-06T09:42:52;50.33;;;27.27;;
56343;SDS011;42245;42.058;24.700;2024-01-06T09:45:21;58.28;;;31.52;;
56343;SDS011;42245;42.058;24.700;2024-01-06T09:47:48;51.15;;;28.05;;
56343;SDS011;42245;42.058;24.700;2024-01-06T09:50:17;46.13;;;27.25;;
56343;SDS011;42245;42.058;24.700;2024-01-06T09:52:45;50.63;;;27.65;;
56343;SDS011;42245;42.058;24.700;2024-01-06T09:55:17;54.17;;;30.58;;
56343;SDS011;42245;42.058;24.700;2024-01-06T09:57:45;57.13;;;32.22;;
56343;SDS011;42245;42.058;24.700;2024-01-06T10:00:10;52.67;;;31.48;;
56343;SDS011;42245;42.058;24.700;2024-01-06T10:02:36;55.67;;;31.27;;
56343;SDS011;42245;42.058;24.700;2024-01-06T10:05:02;68.97;;;36.95;;
56343;SDS011;42245;42.058;24.700;2024-01-06T10:07:28;71.60;;;37.78;;
56343;SDS011;42245;42.058;24.700;2024-01-06T10:09:54;94.72;;;46.72;;
56343;SDS011;42245;42.058;24.700;2024-01-06T10:12:24;77.97;;;40.95;;
56343;SDS011;42245;42.058;24.700;2024-01-06T10:14:50;76.50;;;44.63;;
56343;SDS011;42245;42.058;24.700;2024-01-06T10:17:16;66.45;;;36.47;;
56343;SDS011;42245;42.058;24.700;2024-01-06T10:19:44;75.70;;;39.30;;
56343;SDS011;42245;42.058;24.700;2024-01-06T10:22:10;72.45;;;38.33;;
56343;SDS011;42245;42.058;24.700;2024-01-06T10:24:38;86.30;;;53.53;;
56343;SDS011;42245;42.058;24.700;2024-01-06T10:27:04;70.03;;;40.92;;
56343;SDS011;42245;42.058;24.700;2024-01-06T10:29:29;65.35;;;34.63;;
56343;SDS011;42245;42.058;24.700;2024-01-06T10:31:55;61.95;;;33.63;;
56343;SDS011;42245;42.058;24.700;2024-01-06T10:34:21;60.85;;;34.60;;
56343;SDS011;42245;42.058;24.700;2024-01-06T10:36:48;59.25;;;34.58;;
56343;SDS011;42245;42.058;24.700;2024-01-06T10:39:14;67.40;;;36.60;;
56343;SDS011;42245;42.058;24.700;2024-01-06T10:41:40;54.28;;;31.92;;
56343;SDS011;42245;42.058;24.700;2024-01-06T10:44:07;53.60;;;30.40;;
56343;SDS011;42245;42.058;24.700;2024-01-06T10:46:33;52.88;;;30.45;;
56343;SDS011;42245;42.058;24.700;2024-01-06T10:48:59;60.72;;;33.35;;
56343;SDS011;42245;42.058;24.700;2024-01-06T10:51:26;51.70;;;29.40;;
56343;SDS011;42245;42.058;24.700;2024-01-06T10:53:52;52.63;;;30.27;;
56343;SDS011;42245;42.058;24.700;2024-01-06T10:56:18;47.60;;;28.92;;
56343;SDS011;42245;42.058;24.700;2024-01-06T10:58:47;47.25;;;29.48;;
56343;SDS011;42245;42.058;24.700;2024-01-06T11:01:16;46.00;;;29.95;;
56343;SDS011;42245;42.058;24.700;2024-01-06T11:03:46;50.90;;;29.40;;
56343;SDS011;42245;42.058;24.700;2024-01-06T11:06:13;52.08;;;29.92;;
56343;SDS011;42245;42.058;24.700;2024-01-06T11:08:41;48.75;;;30.40;;
56343;SDS011;42245;42.058;24.700;2024-01-06T11:11:15;59.22;;;31.63;;
56343;SDS011;42245;42.058;24.700;2024-01-06T11:13:42;51.95;;;29.35;;
56343;SDS011;42245;42.058;24.700;2024-01-06T11:16:10;50.17;;;29.05;;
56343;SDS011;42245;42.058;24.700;2024-01-06T11:18:36;47.33;;;27.45;;
56343;SDS011;42245;42.058;24.700;2024-01-06T11:21:16;47.40;;;28.52;;
56343;SDS011;42245;42.058;24.700;2024-01-06T11:26:31;53.25;;;30.25;;
56343;SDS011;42245;42.058;24.700;2024-01-06T11:28:57;59.50;;;32.58;;
56343;SDS011;42245;42.058;24.700;2024-01-06T11:31:23;46.35;;;27.27;;
56343;SDS011;42245;42.058;24.700;2024-01-06T11:33:56;110.35;;;64.63;;
56343;SDS011;42245;42.058;24.700;2024-01-06T11:36:37;41.15;;;24.73;;
56343;SDS011;42245;42.058;24.700;2024-01-06T11:39:05;46.35;;;24.80;;
56343;SDS011;42245;42.058;24.700;2024-01-06T11:41:49;43.30;;;24.85;;
56343;SDS011;42245;42.058;24.700;2024-01-06T11:44:20;32.28;;;18.10;;
56343;SDS011;42245;42.058;24.700;2024-01-06T11:46:45;30.17;;;17.05;;
56343;SDS011;42245;42.058;24.700;2024-01-06T11:49:13;36.53;;;19.67;;
56343;SDS011;42245;42.058;24.700;2024-01-06T11:51:41;31.85;;;16.13;;
56343;SDS011;42245;42.058;24.700;2024-01-06T11:54:06;34.15;;;18.00;;
56343;SDS011;42245;42.058;24.700;2024-01-06T11:56:33;32.33;;;17.23;;
56343;SDS011;42245;42.058;24.700;2024-01-06T11:58:59;29.17;;;17.58;;
56343;SDS011;42245;42.058;24.700;2024-01-06T12:01:25;26.98;;;15.00;;
56343;SDS011;42245;42.058;24.700;2024-01-06T12:03:54;29.42;;;16.60;;
56343;SDS011;42245;42.058;24.700;2024-01-06T12:06:20;29.83;;;16.98;;
56343;SDS011;42245;42.058;24.700;2024-01-06T12:08:48;30.80;;;16.42;;
56343;SDS011;42245;42.058;24.700;2024-01-06T12:11:16;29.05;;;18.77;;
56343;SDS011;42245;42.058;24.700;2024-01-06T12:13:43;26.45;;;15.15;;
56343;SDS011;42245;42.058;24.700;2024-01-06T12:16:09;33.95;;;18.15;;
56343;SDS011;42245;42.058;24.700;2024-01-06T12:18:34;30.75;;;18.33;;
56343;SDS011;42245;42.058;24.700;2024-01-06T12:21:00;33.42;;;17.48;;
56343;SDS011;42245;42.058;24.700;2024-01-06T12:23:28;32.78;;;19.85;;
56343;SDS011;42245;42.058;24.700;2024-01-06T12:25:54;29.30;;;17.80;;
56343;SDS011;42245;42.058;24.700;2024-01-06T12:28:20;31.88;;;18.77;;
56343;SDS011;42245;42.058;24.700;2024-01-06T12:30:46;33.55;;;18.92;;
56343;SDS011;42245;42.058;24.700;2024-01-06T12:33:11;30.30;;;17.25;;
56343;SDS011;42245;42.058;24.700;2024-01-06T12:35:37;30.50;;;18.95;;
56343;SDS011;42245;42.058;24.700;2024-01-06T12:38:03;38.92;;;19.63;;
56343;SDS011;42245;42.058;24.700;2024-01-06T12:40:32;34.50;;;22.42;;
56343;SDS011;42245;42.058;24.700;2024-01-06T12:42:57;37.15;;;21.02;;
56343;SDS011;42245;42.058;24.700;2024-01-06T12:45:23;35.08;;;19.52;;
56343;SDS011;42245;42.058;24.700;2024-01-06T12:47:48;23.33;;;13.13;;
56343;SDS011;42245;42.058;24.700;2024-01-06T12:50:14;22.00;;;12.60;;
56343;SDS011;42245;42.058;24.700;2024-01-06T12:52:39;23.92;;;12.85;;
56343;SDS011;42245;42.058;24.700;2024-01-06T12:55:06;21.27;;;12.00;;
56343;SDS011;42245;42.058;24.700;2024-01-06T12:57:32;23.40;;;13.20;;
56343;SDS011;42245;42.058;24.700;2024-01-06T12:59:57;24.60;;;14.45;;
56343;SDS011;42245;42.058;24.700;2024-01-06T13:02:23;31.15;;;18.08;;
56343;SDS011;42245;42.058;24.700;2024-01-06T13:04:48;30.08;;;17.45;;
56343;SDS011;42245;42.058;24.700;2024-01-06T13:07:14;24.17;;;13.63;;
56343;SDS011;42245;42.058;24.700;2024-01-06T13:09:39;21.65;;;12.70;;
56343;SDS011;42245;42.058;24.700;2024-01-06T13:12:06;28.65;;;14.10;;
56343;SDS011;42245;42.058;24.700;2024-01-06T13:14:31;24.25;;;14.68;;
56343;SDS011;42245;42.058;24.700;2024-01-06T13:16:57;24.83;;;13.77;;
56343;SDS011;42245;42.058;24.700;2024-01-06T13:19:23;24.98;;;14.30;;
56343;SDS011;42245;42.058;24.700;2024-01-06T13:21:49;24.05;;;13.43;;
56343;SDS011;42245;42.058;24.700;2024-01-06T13:24:14;24.75;;;12.43;;
56343;SDS011;42245;42.058;24.700;2024-01-06T13:26:40;29.30;;;15.40;;
56343;SDS011;42245;42.058;24.700;2024-01-06T13:29:06;28.75;;;16.27;;
56343;SDS011;42245;42.058;24.700;2024-01-06T13:31:31;26.40;;;14.45;;
56343;SDS011;42245;42.058;24.700;2024-01-06T13:33:57;26.63;;;13.23;;
56343;SDS011;42245;42.058;24.700;2024-01-06T13:36:23;20.85;;;11.13;;
56343;SDS011;42245;42.058;24.700;2024-01-06T13:38:49;18.30;;;10.20;;
56343;SDS011;42245;42.058;24.700;2024-01-06T13:41:15;16.85;;;10.27;;
56343;SDS011;42245;42.058;24.700;2024-01-06T13:43:41;19.30;;;11.68;;
56343;SDS011;42245;42.058;24.700;2024-01-06T13:46:06;21.38;;;12.10;;
56343;SDS011;42245;42.058;24.700;2024-01-06T13:48:32;24.38;;;13.50;;
56343;SDS011;42245;42.058;24.700;2024-01-06T13:50:57;32.80;;;15.45;;
56343;SDS011;42245;42.058;24.700;2024-01-06T13:53:23;45.17;;;21.58;;
56343;SDS011;42245;42.058;24.700;2024-01-06T13:55:49;29.25;;;16.25;;
56343;SDS011;42245;42.058;24.700;2024-01-06T13:58:15;29.77;;;16.40;;
56343;SDS011;42245;42.058;24.700;2024-01-06T14:00:42;23.20;;;13.80;;
56343;SDS011;42245;42.058;24.700;2024-01-06T14:03:10;27.38;;;14.10;;
56343;SDS011;42245;42.058;24.700;2024-01-06T14:05:36;29.50;;;15.45;;
56343;SDS011;42245;42.058;24.700;2024-01-06T14:08:02;22.30;;;13.77;;
56343;SDS011;42245;42.058;24.700;2024-01-06T14:10:28;23.25;;;13.35;;
56343;SDS011;42245;42.058;24.700;2024-01-06T14:12:54;27.80;;;15.50;;
56343;SDS011;42245;42.058;24.700;2024-01-06T14:15:20;23.08;;;13.68;;
56343;SDS011;42245;42.058;24.700;2024-01-06T14:17:45;28.45;;;15.80;;
56343;SDS011;42245;42.058;24.700;2024-01-06T14:20:15;24.38;;;14.57;;
56343;SDS011;42245;42.058;24.700;2024-01-06T14:22:45;31.13;;;17.88;;
56343;SDS011;42245;42.058;24.700;2024-01-06T14:25:14;23.08;;;13.05;;
56343;SDS011;42245;42.058;24.700;2024-01-06T14:27:43;22.45;;;13.25;;
56343;SDS011;42245;42.058;24.700;2024-01-06T14:30:09;26.33;;;14.60;;
56343;SDS011;42245;42.058;24.700;2024-01-06T14:32:36;23.40;;;14.13;;
56343;SDS011;42245;42.058;24.700;2024-01-06T14:35:05;36.10;;;15.38;;
56343;SDS011;42245;42.058;24.700;2024-01-06T14:37:36;25.52;;;14.20;;
56343;SDS011;42245;42.058;24.700;2024-01-06T14:40:03;28.23;;;14.88;;
56343;SDS011;42245;42.058;24.700;2024-01-06T14:42:30;30.50;;;15.13;;
56343;SDS011;42245;42.058;24.700;2024-01-06T14:44:57;30.05;;;14.65;;
56343;SDS011;42245;42.058;24.700;2024-01-06T14:47:22;27.13;;;13.05;;
56343;SDS011;42245;42.058;24.700;2024-01-06T14:49:48;22.33;;;12.68;;
56343;SDS011;42245;42.058;24.700;2024-01-06T14:52:13;31.13;;;15.15;;
56343;SDS011;42245;42.058;24.700;2024-01-06T14:54:39;22.52;;;14.00;;
56343;SDS011;42245;42.058;24.700;2024-01-06T14:57:04;20.67;;;13.02;;
56343;SDS011;42245;42.058;24.700;2024-01-06T14:59:30;26.83;;;12.65;;
56343;SDS011;42245;42.058;24.700;2024-01-06T15:01:55;25.08;;;12.85;;
56343;SDS011;42245;42.058;24.700;2024-01-06T15:04:21;24.52;;;12.32;;
56343;SDS011;42245;42.058;24.700;2024-01-06T15:06:46;25.75;;;13.48;;
56343;SDS011;42245;42.058;24.700;2024-01-06T15:09:12;25.27;;;14.03;;
56343;SDS011;42245;42.058;24.700;2024-01-06T15:11:38;23.00;;;12.60;;
56343;SDS011;42245;42.058;24.700;2024-01-06T15:14:03;22.83;;;11.90;;
56343;SDS011;42245;42.058;24.700;2024-01-06T15:16:30;26.10;;;12.70;;
56343;SDS011;42245;42.058;24.700;2024-01-06T15:18:56;26.52;;;11.30;;
56343;SDS011;42245;42.058;24.700;2024-01-06T15:21:24;24.55;;;12.00;;
56343;SDS011;42245;42.058;24.700;2024-01-06T15:23:52;24.50;;;12.15;;
56343;SDS011;42245;42.058;24.700;2024-01-06T15:26:22;23.95;;;12.18;;
56343;SDS011;42245;42.058;24.700;2024-01-06T15:28:50;19.08;;;11.68;;
56343;SDS011;42245;42.058;24.700;2024-01-06T15:31:16;23.27;;;12.85;;
56343;SDS011;42245;42.058;24.700;2024-01-06T15:33:41;22.38;;;12.52;;
56343;SDS011;42245;42.058;24.700;2024-01-06T15:36:08;23.70;;;13.02;;
56343;SDS011;42245;42.058;24.700;2024-01-06T15:38:33;23.73;;;12.52;;
56343;SDS011;42245;42.058;24.700;2024-01-06T15:40:59;32.97;;;13.88;;
56343;SDS011;42245;42.058;24.700;2024-01-06T15:43:24;20.83;;;12.25;;
56343;SDS011;42245;42.058;24.700;2024-01-06T15:45:50;29.90;;;12.80;;
56343;SDS011;42245;42.058;24.700;2024-01-06T15:48:17;26.13;;;12.93;;
56343;SDS011;42245;42.058;24.700;2024-01-06T15:50:43;22.43;;;12.83;;
56343;SDS011;42245;42.058;24.700;2024-01-06T15:53:09;25.30;;;14.35;;
56343;SDS011;42245;42.058;24.700;2024-01-06T15:55:34;26.50;;;13.35;;
56343;SDS011;42245;42.058;24.700;2024-01-06T15:57:59;23.88;;;12.85;;
56343;SDS011;42245;42.058;24.700;2024-01-06T16:00:25;26.02;;;13.25;;
56343;SDS011;42245;42.058;24.700;2024-01-06T16:02:50;25.45;;;13.35;;
56343;SDS011;42245;42.058;24.700;2024-01-06T16:05:16;30.50;;;14.67;;
56343;SDS011;42245;42.058;24.700;2024-01-06T16:07:42;36.53;;;16.17;;
56343;SDS011;42245;42.058;24.700;2024-01-06T16:10:08;28.63;;;15.90;;
56343;SDS011;42245;42.058;24.700;2024-01-06T16:12:38;31.57;;;16.13;;
56343;SDS011;42245;42.058;24.700;2024-01-06T16:15:04;31.83;;;14.80;;
56343;SDS011;42245;42.058;24.700;2024-01-06T16:17:31;27.53;;;14.87;;
56343;SDS011;42245;42.058;24.700;2024-01-06T16:19:58;29.10;;;15.03;;
56343;SDS011;42245;42.058;24.700;2024-01-06T16:22:23;31.60;;;14.97;;
56343;SDS011;42245;42.058;24.700;2024-01-06T16:24:49;31.70;;;15.97;;
56343;SDS011;42245;42.058;24.700;2024-01-06T16:27:14;26.33;;;14.83;;
56343;SDS011;42245;42.058;24.700;2024-01-06T16:29:40;27.40;;;14.70;;
56343;SDS011;42245;42.058;24.700;2024-01-06T16:32:05;29.20;;;15.30;;
56343;SDS011;42245;42.058;24.700;2024-01-06T16:34:31;28.63;;;16.13;;
56343;SDS011;42245;42.058;24.700;2024-01-06T16:36:56;35.10;;;16.10;;
56343;SDS011;42245;42.058;24.700;2024-01-06T16:39:21;39.50;;;16.27;;
56343;SDS011;42245;42.058;24.700;2024-01-06T16:41:47;33.22;;;17.40;;
56343;SDS011;42245;42.058;24.700;2024-01-06T16:44:12;31.43;;;15.97;;
56343;SDS011;42245;42.058;24.700;2024-01-06T16:46:38;27.20;;;15.10;;
56343;SDS011;42245;42.058;24.700;2024-01-06T16:49:03;30.65;;;16.15;;
56343;SDS011;42245;42.058;24.700;2024-01-06T16:51:29;29.27;;;15.37;;
56343;SDS011;42245;42.058;24.700;2024-01-06T16:53:54;33.60;;;16.53;;
56343;SDS011;42245;42.058;24.700;2024-01-06T16:56:20;34.43;;;15.77;;
56343;SDS011;42245;42.058;24.700;2024-01-06T16:58:45;31.03;;;15.63;;
56343;SDS011;42245;42.058;24.700;2024-01-06T17:01:11;28.77;;;16.03;;
56343;SDS011;42245;42.058;24.700;2024-01-06T17:03:37;28.07;;;15.27;;
56343;SDS011;42245;42.058;24.700;2024-01-06T17:06:03;28.03;;;15.77;;
56343;SDS011;42245;42.058;24.700;2024-01-06T17:08:28;34.83;;;16.57;;
56343;SDS011;42245;42.058;24.700;2024-01-06T17:10:54;32.30;;;15.87;;
56343;SDS011;42245;42.058;24.700;2024-01-06T17:13:19;30.97;;;16.63;;
56343;SDS011;42245;42.058;24.700;2024-01-06T17:15:46;32.87;;;16.57;;
56343;SDS011;42245;42.058;24.700;2024-01-06T17:18:12;32.13;;;16.30;;
56343;SDS011;42245;42.058;24.700;2024-01-06T17:20:38;27.43;;;15.73;;
56343;SDS011;42245;42.058;24.700;2024-01-06T17:23:04;30.30;;;15.67;;
56343;SDS011;42245;42.058;24.700;2024-01-06T17:25:30;29.33;;;15.13;;
56343;SDS011;42245;42.058;24.700;2024-01-06T17:27:57;29.63;;;16.27;;
56343;SDS011;42245;42.058;24.700;2024-01-06T17:30:22;27.53;;;16.43;;
56343;SDS011;42245;42.058;24.700;2024-01-06T17:32:48;33.83;;;16.50;;
56343;SDS011;42245;42.058;24.700;2024-01-06T17:35:13;32.47;;;17.20;;
56343;SDS011;42245;42.058;24.700;2024-01-06T17:37:39;34.03;;;16.77;;
56343;SDS011;42245;42.058;24.700;2024-01-06T17:40:04;29.87;;;15.90;;
56343;SDS011;42245;42.058;24.700;2024-01-06T17:42:30;29.47;;;16.17;;
56343;SDS011;42245;42.058;24.700;2024-01-06T17:44:56;29.20;;;14.70;;
56343;SDS011;42245;42.058;24.700;2024-01-06T17:47:23;29.53;;;15.70;;
56343;SDS011;42245;42.058;24.700;2024-01-06T17:49:48;27.77;;;15.70;;
56343;SDS011;42245;42.058;24.700;2024-01-06T17:52:14;26.83;;;14.80;;
56343;SDS011;42245;42.058;24.700;2024-01-06T17:54:39;29.67;;;15.17;;
56343;SDS011;42245;42.058;24.700;2024-01-06T17:57:05;33.50;;;16.00;;
56343;SDS011;42245;42.058;24.700;2024-01-06T17:59:30;30.03;;;16.93;;
56343;SDS011;42245;42.058;24.700;2024-01-06T18:01:56;30.23;;;14.77;;
56343;SDS011;42245;42.058;24.700;2024-01-06T18:04:22;28.77;;;14.90;;
56343;SDS011;42245;42.058;24.700;2024-01-06T18:06:48;32.23;;;16.97;;
56343;SDS011;42245;42.058;24.700;2024-01-06T18:09:13;32.20;;;17.00;;
56343;SDS011;42245;42.058;24.700;2024-01-06T18:11:43;112.73;;;42.63;;
56343;SDS011;42245;42.058;24.700;2024-01-06T18:14:10;42.90;;;20.60;;
56343;SDS011;42245;42.058;24.700;2024-01-06T18:16:38;30.70;;;16.23;;
56343;SDS011;42245;42.058;24.700;2024-01-06T18:19:04;34.87;;;17.17;;
56343;SDS011;42245;42.058;24.700;2024-01-06T18:21:31;29.27;;;15.83;;
56343;SDS011;42245;42.058;24.700;2024-01-06T18:23:57;35.17;;;16.83;;
56343;SDS011;42245;42.058;24.700;2024-01-06T18:26:22;29.57;;;15.03;;
56343;SDS011;42245;42.058;24.700;2024-01-06T18:28:48;31.27;;;15.13;;
56343;SDS011;42245;42.058;24.700;2024-01-06T18:31:13;28.07;;;14.30;;
56343;SDS011;42245;42.058;24.700;2024-01-06T18:33:39;30.93;;;15.47;;
56343;SDS011;42245;42.058;24.700;2024-01-06T18:36:05;28.77;;;15.60;;
56343;SDS011;42245;42.058;24.700;2024-01-06T18:38:32;27.93;;;14.93;;
56343;SDS011;42245;42.058;24.700;2024-01-06T18:40:57;28.13;;;15.03;;
56343;SDS011;42245;42.058;24.700;2024-01-06T18:43:25;26.53;;;14.33;;
56343;SDS011;42245;42.058;24.700;2024-01-06T18:45:51;27.67;;;15.07;;
56343;SDS011;42245;42.058;24.700;2024-01-06T18:48:16;26.60;;;15.60;;
56343;SDS011;42245;42.058;24.700;2024-01-06T18:50:42;33.57;;;14.43;;
56343;SDS011;42245;42.058;24.700;2024-01-06T18:53:08;27.40;;;15.30;;
56343;SDS011;42245;42.058;24.700;2024-01-06T18:55:33;26.43;;;14.30;;
56343;SDS011;42245;42.058;24.700;2024-01-06T18:57:59;26.27;;;14.87;;
56343;SDS011;42245;42.058;24.700;2024-01-06T19:00:25;28.73;;;16.80;;
56343;SDS011;42245;42.058;24.700;2024-01-06T19:02:51;28.03;;;14.53;;
56343;SDS011;42245;42.058;24.700;2024-01-06T19:05:16;28.05;;;14.50;;
56343;SDS011;42245;42.058;24.700;2024-01-06T19:07:45;27.10;;;13.48;;
56343;SDS011;42245;42.058;24.700;2024-01-06T19:10:10;26.30;;;14.00;;
56343;SDS011;42245;42.058;24.700;2024-01-06T19:12:36;24.20;;;12.93;;
56343;SDS011;42245;42.058;24.700;2024-01-06T19:15:02;25.87;;;13.30;;
56343;SDS011;42245;42.058;24.700;2024-01-06T19:17:28;28.13;;;14.33;;
56343;SDS011;42245;42.058;24.700;2024-01-06T19:19:53;29.33;;;13.93;;
56343;SDS011;42245;42.058;24.700;2024-01-06T19:22:19;27.97;;;13.23;;
56343;SDS011;42245;42.058;24.700;2024-01-06T19:24:44;24.10;;;13.00;;
56343;SDS011;42245;42.058;24.700;2024-01-06T19:27:10;22.23;;;11.77;;
56343;SDS011;42245;42.058;24.700;2024-01-06T19:29:36;25.20;;;13.50;;
56343;SDS011;42245;42.058;24.700;2024-01-06T19:32:07;29.80;;;13.93;;
56343;SDS011;42245;42.058;24.700;2024-01-06T19:34:32;28.23;;;13.35;;
56343;SDS011;42245;42.058;24.700;2024-01-06T19:36:59;28.93;;;14.10;;
56343;SDS011;42245;42.058;24.700;2024-01-06T19:39:26;29.57;;;14.10;;
56343;SDS011;42245;42.058;24.700;2024-01-06T19:41:53;27.40;;;14.17;;
56343;SDS011;42245;42.058;24.700;2024-01-06T19:44:19;29.63;;;15.07;;
56343;SDS011;42245;42.058;24.700;2024-01-06T19:46:44;32.87;;;15.33;;
56343;SDS011;42245;42.058;24.700;2024-01-06T19:49:10;26.83;;;14.70;;
56343;SDS011;42245;42.058;24.700;2024-01-06T19:51:36;27.38;;;15.55;;
56343;SDS011;42245;42.058;24.700;2024-01-06T19:54:01;23.20;;;13.80;;
56343;SDS011;42245;42.058;24.700;2024-01-06T19:56:27;28.97;;;14.00;;
56343;SDS011;42245;42.058;24.700;2024-01-06T19:58:52;30.40;;;15.57;;
56343;SDS011;42245;42.058;24.700;2024-01-06T20:01:18;25.57;;;13.77;;
56343;SDS011;42245;42.058;24.700;2024-01-06T20:03:43;26.17;;;13.33;;
56343;SDS011;42245;42.058;24.700;2024-01-06T20:06:09;21.57;;;12.90;;
56343;SDS011;42245;42.058;24.700;2024-01-06T20:08:34;26.23;;;13.17;;
56343;SDS011;42245;42.058;24.700;2024-01-06T20:10:59;22.43;;;12.17;;
56343;SDS011;42245;42.058;24.700;2024-01-06T20:13:26;20.80;;;11.47;;
56343;SDS011;42245;42.058;24.700;2024-01-06T20:15:53;23.08;;;11.13;;
56343;SDS011;42245;42.058;24.700;2024-01-06T20:18:19;19.40;;;10.27;;
56343;SDS011;42245;42.058;24.700;2024-01-06T20:20:46;15.13;;;9.85;;
56343;SDS011;42245;42.058;24.700;2024-01-06T20:23:12;20.35;;;10.23;;
56343;SDS011;42245;42.058;24.700;2024-01-06T20:25:39;14.38;;;8.85;;
56343;SDS011;42245;42.058;24.700;2024-01-06T20:28:07;15.10;;;8.60;;
56343;SDS011;42245;42.058;24.700;2024-01-06T20:30:33;18.30;;;9.20;;
56343;SDS011;42245;42.058;24.700;2024-01-06T20:32:58;20.00;;;10.43;;
56343;SDS011;42245;42.058;24.700;2024-01-06T20:35:24;18.37;;;9.53;;
56343;SDS011;42245;42.058;24.700;2024-01-06T20:37:49;21.00;;;9.53;;
56343;SDS011;42245;42.058;24.700;2024-01-06T20:40:15;15.93;;;8.88;;
56343;SDS011;42245;42.058;24.700;2024-01-06T20:42:41;17.60;;;9.83;;
56343;SDS011;42245;42.058;24.700;2024-01-06T20:45:07;21.08;;;10.23;;
56343;SDS011;42245;42.058;24.700;2024-01-06T20:47:33;18.77;;;9.57;;
56343;SDS011;42245;42.058;24.700;2024-01-06T20:49:58;18.47;;;9.77;;
56343;SDS011;42245;42.058;24.700;2024-01-06T20:52:24;24.73;;;11.02;;
56343;SDS011;42245;42.058;24.700;2024-01-06T20:54:51;22.43;;;11.03;;
56343;SDS011;42245;42.058;24.700;2024-01-06T20:57:16;21.00;;;10.10;;
56343;SDS011;42245;42.058;24.700;2024-01-06T20:59:42;17.88;;;9.52;;
56343;SDS011;42245;42.058;24.700;2024-01-06T21:02:10;23.57;;;11.93;;
56343;SDS011;42245;42.058;24.700;2024-01-06T21:04:36;28.33;;;13.37;;
56343;SDS011;42245;42.058;24.700;2024-01-06T21:07:02;22.43;;;11.63;;
56343;SDS011;42245;42.058;24.700;2024-01-06T21:09:28;20.33;;;10.73;;
56343;SDS011;42245;42.058;24.700;2024-01-06T21:11:54;23.93;;;12.13;;
56343;SDS011;42245;42.058;24.700;2024-01-06T21:14:20;19.40;;;11.43;;
56343;SDS011;42245;42.058;24.700;2024-01-06T21:16:46;24.20;;;12.10;;
56343;SDS011;42245;42.058;24.700;2024-01-06T21:19:12;22.13;;;12.63;;
56343;SDS011;42245;42.058;24.700;2024-01-06T21:21:37;25.33;;;13.93;;
56343;SDS011;42245;42.058;24.700;2024-01-06T21:24:02;32.27;;;15.00;;
56343;SDS011;42245;42.058;24.700;2024-01-06T21:26:28;25.13;;;14.40;;
56343;SDS011;42245;42.058;24.700;2024-01-06T21:28:56;30.80;;;14.03;;
56343;SDS011;42245;42.058;24.700;2024-01-06T21:31:21;31.00;;;14.80;;
56343;SDS011;42245;42.058;24.700;2024-01-06T21:33:47;27.40;;;15.63;;
56343;SDS011;42245;42.058;24.700;2024-01-06T21:36:13;26.90;;;14.27;;
56343;SDS011;42245;42.058;24.700;2024-01-06T21:38:40;29.37;;;14.27;;
56343;SDS011;42245;42.058;24.700;2024-01-06T21:41:08;27.40;;;13.23;;